sensor_id;sensor_type;location;lat;lon;timestamp;temperature;humidity
17599;DHT22;8918;52.092;5.232;2024-01-11T00:00:50;-3.70;99.90
17599;DHT22;8918;52.092;5.232;2024-01-11T00:03:15;-3.70;99.90
17599;DHT22;8918;52.092;5.232;2024-01-11T00:05:41;-3.80;99.90
17599;DHT22;8918;52.092;5.232;2024-01-11T00:08:07;-3.70;99.90
17599;DHT22;8918;52.092;5.232;2024-01-11T00:10:33;-3.80;99.90
17599;DHT22;8918;52.092;5.232;2024-01-11T00:12:59;-3.80;99.90
17599;DHT22;8918;52.092;5.232;2024-01-11T00:15:24;-3.80;99.90
17599;DHT22;8918;52.092;5.232;2024-01-11T00:17:50;-3.90;99.90
17599;DHT22;8918;52.092;5.232;2024-01-11T00:20:15;-3.90;99.90
17599;DHT22;8918;52.092;5.232;2024-01-11T00:22:41;-4.00;99.90
17599;DHT22;8918;52.092;5.232;2024-01-11T00:25:07;-4.00;99.90
17599;DHT22;8918;52.092;5.232;2024-01-11T00:27:33;-4.00;99.90
17599;DHT22;8918;52.092;5.232;2024-01-11T00:29:59;-4.10;99.90
17599;DHT22;8918;52.092;5.232;2024-01-11T00:32:25;-4.10;99.90
17599;DHT22;8918;52.092;5.232;2024-01-11T00:34:51;-4.10;99.90
17599;DHT22;8918;52.092;5.232;2024-01-11T00:37:21;-4.20;99.90
17599;DHT22;8918;52.092;5.232;2024-01-11T00:39:47;-4.20;99.90
17599;DHT22;8918;52.092;5.232;2024-01-11T00:42:13;-4.20;99.90
17599;DHT22;8918;52.092;5.232;2024-01-11T00:44:38;-4.20;99.90
17599;DHT22;8918;52.092;5.232;2024-01-11T00:47:04;-4.30;99.90
17599;DHT22;8918;52.092;5.232;2024-01-11T00:49:29;-4.30;99.90
17599;DHT22;8918;52.092;5.232;2024-01-11T00:51:55;-4.30;99.90
17599;DHT22;8918;52.092;5.232;2024-01-11T00:54:20;-4.30;99.90
17599;DHT22;8918;52.092;5.232;2024-01-11T00:56:47;-4.30;99.90
17599;DHT22;8918;52.092;5.232;2024-01-11T00:59:12;-4.30;99.90
17599;DHT22;8918;52.092;5.232;2024-01-11T01:01:38;-4.30;99.90
17599;DHT22;8918;52.092;5.232;2024-01-11T01:04:04;-4.30;99.90
17599;DHT22;8918;52.092;5.232;2024-01-11T01:06:29;-4.30;99.90
17599;DHT22;8918;52.092;5.232;2024-01-11T01:08:55;-4.30;99.90
17599;DHT22;8918;52.092;5.232;2024-01-11T01:11:21;-4.30;99.90
17599;DHT22;8918;52.092;5.232;2024-01-11T01:13:46;-4.30;99.90
17599;DHT22;8918;52.092;5.232;2024-01-11T01:16:12;-4.30;99.90
17599;DHT22;8918;52.092;5.232;2024-01-11T01:18:38;-4.30;99.90
17599;DHT22;8918;52.092;5.232;2024-01-11T01:21:04;-4.30;99.90
17599;DHT22;8918;52.092;5.232;2024-01-11T01:23:32;-4.40;99.90
17599;DHT22;8918;52.092;5.232;2024-01-11T01:25:57;-4.40;99.90
17599;DHT22;8918;52.092;5.232;2024-01-11T01:28:23;-4.40;99.90
17599;DHT22;8918;52.092;5.232;2024-01-11T01:30:50;-4.40;99.90
17599;DHT22;8918;52.092;5.232;2024-01-11T01:33:15;-4.40;99.90
17599;DHT22;8918;52.092;5.232;2024-01-11T01:35:41;-4.40;99.90
17599;DHT22;8918;52.092;5.232;2024-01-11T01:38:07;-4.40;99.90
17599;DHT22;8918;52.092;5.232;2024-01-11T01:40:32;-4.40;99.90
17599;DHT22;8918;52.092;5.232;2024-01-11T01:42:58;-4.40;99.90
17599;DHT22;8918;52.092;5.232;2024-01-11T01:45:27;-4.50;99.90
17599;DHT22;8918;52.092;5.232;2024-01-11T01:47:53;-4.60;99.90
17599;DHT22;8918;52.092;5.232;2024-01-11T01:50:19;-4.60;99.90
17599;DHT22;8918;52.092;5.232;2024-01-11T01:52:46;-4.60;99.90
17599;DHT22;8918;52.092;5.232;2024-01-11T01:55:14;-4.60;99.90
17599;DHT22;8918;52.092;5.232;2024-01-11T01:57:42;-4.70;99.90
17599;DHT22;8918;52.092;5.232;2024-01-11T02:00:10;-4.60;99.90
17599;DHT22;8918;52.092;5.232;2024-01-11T02:02:38;-4.60;99.90
17599;DHT22;8918;52.092;5.232;2024-01-11T02:05:05;-4.60;99.90
17599;DHT22;8918;52.092;5.232;2024-01-11T02:07:31;-4.70;99.90
17599;DHT22;8918;52.092;5.232;2024-01-11T02:09:58;-4.70;99.90
17599;DHT22;8918;52.092;5.232;2024-01-11T02:12:25;-4.70;99.90
17599;DHT22;8918;52.092;5.232;2024-01-11T02:14:54;-4.70;99.90
17599;DHT22;8918;52.092;5.232;2024-01-11T02:17:20;-4.70;99.90
17599;DHT22;8918;52.092;5.232;2024-01-11T02:19:46;-4.80;99.90
17599;DHT22;8918;52.092;5.232;2024-01-11T02:22:22;-4.80;99.90
17599;DHT22;8918;52.092;5.232;2024-01-11T02:24:49;-4.80;99.90
17599;DHT22;8918;52.092;5.232;2024-01-11T02:27:15;-4.80;99.90
17599;DHT22;8918;52.092;5.232;2024-01-11T02:29:40;-4.80;99.90
17599;DHT22;8918;52.092;5.232;2024-01-11T02:32:06;-4.90;99.90
17599;DHT22;8918;52.092;5.232;2024-01-11T02:34:33;-4.90;99.90
17599;DHT22;8918;52.092;5.232;2024-01-11T02:36:59;-5.00;99.90
17599;DHT22;8918;52.092;5.232;2024-01-11T02:39:25;-5.00;99.90
17599;DHT22;8918;52.092;5.232;2024-01-11T02:41:52;-5.00;99.90
17599;DHT22;8918;52.092;5.232;2024-01-11T02:44:18;-5.00;99.90
17599;DHT22;8918;52.092;5.232;2024-01-11T02:46:44;-5.00;99.90
17599;DHT22;8918;52.092;5.232;2024-01-11T02:49:10;-5.00;99.90
17599;DHT22;8918;52.092;5.232;2024-01-11T02:51:35;-5.00;99.90
17599;DHT22;8918;52.092;5.232;2024-01-11T02:54:02;-5.00;99.90
17599;DHT22;8918;52.092;5.232;2024-01-11T02:56:27;-5.00;99.90
17599;DHT22;8918;52.092;5.232;2024-01-11T02:58:53;-5.00;99.90
17599;DHT22;8918;52.092;5.232;2024-01-11T03:01:19;-5.00;99.90
17599;DHT22;8918;52.092;5.232;2024-01-11T03:03:44;-5.00;99.90
17599;DHT22;8918;52.092;5.232;2024-01-11T03:06:10;-5.00;99.90
17599;DHT22;8918;52.092;5.232;2024-01-11T03:08:36;-5.00;99.90
17599;DHT22;8918;52.092;5.232;2024-01-11T03:11:01;-5.00;99.90
17599;DHT22;8918;52.092;5.232;2024-01-11T03:13:27;-5.00;99.90
17599;DHT22;8918;52.092;5.232;2024-01-11T03:15:53;-5.00;99.90
17599;DHT22;8918;52.092;5.232;2024-01-11T03:18:21;-4.90;99.90
17599;DHT22;8918;52.092;5.232;2024-01-11T03:20:47;-5.00;99.90
17599;DHT22;8918;52.092;5.232;2024-01-11T03:23:12;-5.00;99.90
17599;DHT22;8918;52.092;5.232;2024-01-11T03:25:38;-5.00;99.90
17599;DHT22;8918;52.092;5.232;2024-01-11T03:28:04;-5.00;99.90
17599;DHT22;8918;52.092;5.232;2024-01-11T03:30:30;-5.00;99.90
17599;DHT22;8918;52.092;5.232;2024-01-11T03:32:55;-5.10;99.90
17599;DHT22;8918;52.092;5.232;2024-01-11T03:35:21;-5.10;99.90
17599;DHT22;8918;52.092;5.232;2024-01-11T03:37:47;-5.10;99.90
17599;DHT22;8918;52.092;5.232;2024-01-11T03:40:13;-5.10;99.90
17599;DHT22;8918;52.092;5.232;2024-01-11T03:42:39;-5.10;99.90
17599;DHT22;8918;52.092;5.232;2024-01-11T03:45:09;-5.20;99.90
17599;DHT22;8918;52.092;5.232;2024-01-11T03:47:34;-5.20;99.90
17599;DHT22;8918;52.092;5.232;2024-01-11T03:50:00;-5.10;99.90
17599;DHT22;8918;52.092;5.232;2024-01-11T03:52:26;-5.10;99.90
17599;DHT22;8918;52.092;5.232;2024-01-11T03:54:52;-5.10;99.90
17599;DHT22;8918;52.092;5.232;2024-01-11T03:57:17;-5.10;99.90
17599;DHT22;8918;52.092;5.232;2024-01-11T03:59:43;-5.20;99.90
17599;DHT22;8918;52.092;5.232;2024-01-11T04:02:09;-5.20;99.90
17599;DHT22;8918;52.092;5.232;2024-01-11T04:04:34;-5.20;99.90
17599;DHT22;8918;52.092;5.232;2024-01-11T04:07:00;-5.20;99.90
17599;DHT22;8918;52.092;5.232;2024-01-11T04:09:25;-5.20;99.90
17599;DHT22;8918;52.092;5.232;2024-01-11T04:11:54;-5.20;99.90
17599;DHT22;8918;52.092;5.232;2024-01-11T04:14:20;-5.20;99.90
17599;DHT22;8918;52.092;5.232;2024-01-11T04:16:45;-5.30;99.90
17599;DHT22;8918;52.092;5.232;2024-01-11T04:19:11;-5.30;99.90
17599;DHT22;8918;52.092;5.232;2024-01-11T04:21:37;-5.30;99.90
17599;DHT22;8918;52.092;5.232;2024-01-11T04:24:04;-5.30;99.90
17599;DHT22;8918;52.092;5.232;2024-01-11T04:26:31;-5.30;99.90
17599;DHT22;8918;52.092;5.232;2024-01-11T04:28:57;-5.30;99.90
17599;DHT22;8918;52.092;5.232;2024-01-11T04:31:25;-5.40;99.90
17599;DHT22;8918;52.092;5.232;2024-01-11T04:33:51;-5.30;99.90
17599;DHT22;8918;52.092;5.232;2024-01-11T04:36:16;-5.40;99.90
17599;DHT22;8918;52.092;5.232;2024-01-11T04:38:42;-5.40;99.90
17599;DHT22;8918;52.092;5.232;2024-01-11T04:41:09;-5.40;99.90
17599;DHT22;8918;52.092;5.232;2024-01-11T04:43:42;-5.40;99.90
17599;DHT22;8918;52.092;5.232;2024-01-11T04:46:22;-5.40;99.90
17599;DHT22;8918;52.092;5.232;2024-01-11T04:48:49;-5.40;99.90
17599;DHT22;8918;52.092;5.232;2024-01-11T04:51:17;-5.40;99.90
17599;DHT22;8918;52.092;5.232;2024-01-11T04:53:43;-5.40;99.90
17599;DHT22;8918;52.092;5.232;2024-01-11T04:56:10;-5.40;99.90
17599;DHT22;8918;52.092;5.232;2024-01-11T04:58:39;-5.40;99.90
17599;DHT22;8918;52.092;5.232;2024-01-11T05:01:14;-5.40;99.90
17599;DHT22;8918;52.092;5.232;2024-01-11T05:03:41;-5.40;99.90
17599;DHT22;8918;52.092;5.232;2024-01-11T05:06:07;-5.50;99.90
17599;DHT22;8918;52.092;5.232;2024-01-11T05:08:32;-5.50;99.90
17599;DHT22;8918;52.092;5.232;2024-01-11T05:10:58;-5.50;99.90
17599;DHT22;8918;52.092;5.232;2024-01-11T05:13:24;-5.50;99.90
17599;DHT22;8918;52.092;5.232;2024-01-11T05:15:49;-5.50;99.90
17599;DHT22;8918;52.092;5.232;2024-01-11T05:18:15;-5.50;99.90
17599;DHT22;8918;52.092;5.232;2024-01-11T05:20:41;-5.50;99.90
17599;DHT22;8918;52.092;5.232;2024-01-11T05:23:06;-5.50;99.90
17599;DHT22;8918;52.092;5.232;2024-01-11T05:25:32;-5.50;99.90
17599;DHT22;8918;52.092;5.232;2024-01-11T05:27:59;-5.50;99.90
17599;DHT22;8918;52.092;5.232;2024-01-11T05:30:25;-5.50;99.90
17599;DHT22;8918;52.092;5.232;2024-01-11T05:32:50;-5.50;99.90
17599;DHT22;8918;52.092;5.232;2024-01-11T05:35:16;-5.50;99.90
17599;DHT22;8918;52.092;5.232;2024-01-11T05:37:42;-5.50;99.90
17599;DHT22;8918;52.092;5.232;2024-01-11T05:40:08;-5.50;99.90
17599;DHT22;8918;52.092;5.232;2024-01-11T05:42:33;-5.50;99.90
17599;DHT22;8918;52.092;5.232;2024-01-11T05:44:59;-5.60;99.90
17599;DHT22;8918;52.092;5.232;2024-01-11T05:47:25;-5.50;99.90
17599;DHT22;8918;52.092;5.232;2024-01-11T05:49:50;-5.60;99.90
17599;DHT22;8918;52.092;5.232;2024-01-11T05:52:16;-5.60;99.90
17599;DHT22;8918;52.092;5.232;2024-01-11T05:54:42;-5.60;99.90
17599;DHT22;8918;52.092;5.232;2024-01-11T05:57:07;-5.60;99.90
17599;DHT22;8918;52.092;5.232;2024-01-11T05:59:33;-5.60;99.90
17599;DHT22;8918;52.092;5.232;2024-01-11T06:01:59;-5.60;99.90
17599;DHT22;8918;52.092;5.232;2024-01-11T06:04:26;-5.60;99.90
17599;DHT22;8918;52.092;5.232;2024-01-11T06:06:52;-5.60;99.90
17599;DHT22;8918;52.092;5.232;2024-01-11T06:09:17;-5.60;99.90
17599;DHT22;8918;52.092;5.232;2024-01-11T06:11:43;-5.50;99.90
17599;DHT22;8918;52.092;5.232;2024-01-11T06:14:09;-5.50;99.90
17599;DHT22;8918;52.092;5.232;2024-01-11T06:16:34;-5.50;99.90
17599;DHT22;8918;52.092;5.232;2024-01-11T06:19:00;-5.60;99.90
17599;DHT22;8918;52.092;5.232;2024-01-11T06:21:25;-5.60;99.90
17599;DHT22;8918;52.092;5.232;2024-01-11T06:23:51;-5.60;99.90
17599;DHT22;8918;52.092;5.232;2024-01-11T06:26:17;-5.60;99.90
17599;DHT22;8918;52.092;5.232;2024-01-11T06:28:42;-5.60;99.90
17599;DHT22;8918;52.092;5.232;2024-01-11T06:31:09;-5.60;99.90
17599;DHT22;8918;52.092;5.232;2024-01-11T06:33:35;-5.60;99.90
17599;DHT22;8918;52.092;5.232;2024-01-11T06:36:04;-5.60;99.90
17599;DHT22;8918;52.092;5.232;2024-01-11T06:38:31;-5.60;99.90
17599;DHT22;8918;52.092;5.232;2024-01-11T06:40:57;-5.60;99.90
17599;DHT22;8918;52.092;5.232;2024-01-11T06:43:22;-5.60;99.90
17599;DHT22;8918;52.092;5.232;2024-01-11T06:45:48;-5.60;99.90
17599;DHT22;8918;52.092;5.232;2024-01-11T06:48:14;-5.60;99.90
17599;DHT22;8918;52.092;5.232;2024-01-11T06:50:39;-5.60;99.90
17599;DHT22;8918;52.092;5.232;2024-01-11T06:53:05;-5.60;99.90
17599;DHT22;8918;52.092;5.232;2024-01-11T06:55:31;-5.60;99.90
17599;DHT22;8918;52.092;5.232;2024-01-11T06:57:56;-5.70;99.90
17599;DHT22;8918;52.092;5.232;2024-01-11T07:00:23;-5.60;99.90
17599;DHT22;8918;52.092;5.232;2024-01-11T07:02:48;-5.60;99.90
17599;DHT22;8918;52.092;5.232;2024-01-11T07:05:14;-5.60;99.90
17599;DHT22;8918;52.092;5.232;2024-01-11T07:07:40;-5.60;99.90
17599;DHT22;8918;52.092;5.232;2024-01-11T07:10:06;-5.60;99.90
17599;DHT22;8918;52.092;5.232;2024-01-11T07:12:32;-5.60;99.90
17599;DHT22;8918;52.092;5.232;2024-01-11T07:14:58;-5.60;99.90
17599;DHT22;8918;52.092;5.232;2024-01-11T07:17:24;-5.60;99.90
17599;DHT22;8918;52.092;5.232;2024-01-11T07:19:50;-5.60;99.90
17599;DHT22;8918;52.092;5.232;2024-01-11T07:22:16;-5.70;99.90
17599;DHT22;8918;52.092;5.232;2024-01-11T07:24:42;-5.70;99.90
17599;DHT22;8918;52.092;5.232;2024-01-11T07:27:08;-5.70;99.90
17599;DHT22;8918;52.092;5.232;2024-01-11T07:29:33;-5.70;99.90
17599;DHT22;8918;52.092;5.232;2024-01-11T07:32:00;-5.70;99.90
17599;DHT22;8918;52.092;5.232;2024-01-11T07:34:29;-5.70;99.90
17599;DHT22;8918;52.092;5.232;2024-01-11T07:36:55;-5.60;99.90
17599;DHT22;8918;52.092;5.232;2024-01-11T07:39:22;-5.60;99.90
17599;DHT22;8918;52.092;5.232;2024-01-11T07:41:48;-5.60;99.90
17599;DHT22;8918;52.092;5.232;2024-01-11T07:44:14;-5.60;99.90
17599;DHT22;8918;52.092;5.232;2024-01-11T07:46:40;-5.60;99.90
17599;DHT22;8918;52.092;5.232;2024-01-11T07:49:06;-5.60;99.90
17599;DHT22;8918;52.092;5.232;2024-01-11T07:51:32;-5.60;99.90
17599;DHT22;8918;52.092;5.232;2024-01-11T07:53:57;-5.60;99.90
17599;DHT22;8918;52.092;5.232;2024-01-11T07:56:24;-5.60;99.90
17599;DHT22;8918;52.092;5.232;2024-01-11T07:58:49;-5.60;99.90
17599;DHT22;8918;52.092;5.232;2024-01-11T08:01:15;-5.60;99.90
17599;DHT22;8918;52.092;5.232;2024-01-11T08:03:41;-5.60;99.90
17599;DHT22;8918;52.092;5.232;2024-01-11T08:06:07;-5.60;99.90
17599;DHT22;8918;52.092;5.232;2024-01-11T08:08:33;-5.60;99.90
17599;DHT22;8918;52.092;5.232;2024-01-11T08:10:59;-5.60;99.90
17599;DHT22;8918;52.092;5.232;2024-01-11T08:13:25;-5.50;99.90
17599;DHT22;8918;52.092;5.232;2024-01-11T08:15:50;-5.50;99.90
17599;DHT22;8918;52.092;5.232;2024-01-11T08:18:18;-5.50;99.90
17599;DHT22;8918;52.092;5.232;2024-01-11T08:20:44;-5.40;99.90
17599;DHT22;8918;52.092;5.232;2024-01-11T08:23:10;-5.40;99.90
17599;DHT22;8918;52.092;5.232;2024-01-11T08:25:35;-5.30;99.90
17599;DHT22;8918;52.092;5.232;2024-01-11T08:28:01;-5.30;99.90
17599;DHT22;8918;52.092;5.232;2024-01-11T08:30:28;-5.30;99.90
17599;DHT22;8918;52.092;5.232;2024-01-11T08:32:54;-5.30;99.90
17599;DHT22;8918;52.092;5.232;2024-01-11T08:35:21;-5.20;99.90
17599;DHT22;8918;52.092;5.232;2024-01-11T08:37:46;-5.20;99.90
17599;DHT22;8918;52.092;5.232;2024-01-11T08:40:12;-5.10;99.90
17599;DHT22;8918;52.092;5.232;2024-01-11T08:42:38;-5.10;99.90
17599;DHT22;8918;52.092;5.232;2024-01-11T08:45:05;-5.10;99.90
17599;DHT22;8918;52.092;5.232;2024-01-11T08:47:33;-5.10;99.90
17599;DHT22;8918;52.092;5.232;2024-01-11T08:49:59;-5.00;99.90
17599;DHT22;8918;52.092;5.232;2024-01-11T08:52:24;-5.00;99.90
17599;DHT22;8918;52.092;5.232;2024-01-11T08:54:50;-5.00;99.90
17599;DHT22;8918;52.092;5.232;2024-01-11T08:57:16;-4.90;99.90
17599;DHT22;8918;52.092;5.232;2024-01-11T08:59:42;-4.90;99.90
17599;DHT22;8918;52.092;5.232;2024-01-11T09:02:08;-4.80;99.90
17599;DHT22;8918;52.092;5.232;2024-01-11T09:04:33;-4.70;99.90
17599;DHT22;8918;52.092;5.232;2024-01-11T09:06:59;-4.70;99.90
17599;DHT22;8918;52.092;5.232;2024-01-11T09:09:25;-4.70;99.90
17599;DHT22;8918;52.092;5.232;2024-01-11T09:11:50;-4.60;99.90
17599;DHT22;8918;52.092;5.232;2024-01-11T09:14:16;-4.60;99.90
17599;DHT22;8918;52.092;5.232;2024-01-11T09:16:41;-4.50;99.90
17599;DHT22;8918;52.092;5.232;2024-01-11T09:19:07;-4.50;99.90
17599;DHT22;8918;52.092;5.232;2024-01-11T09:21:33;-4.40;99.90
17599;DHT22;8918;52.092;5.232;2024-01-11T09:23:58;-4.40;99.90
17599;DHT22;8918;52.092;5.232;2024-01-11T09:26:24;-4.30;99.90
17599;DHT22;8918;52.092;5.232;2024-01-11T09:28:49;-4.20;99.90
17599;DHT22;8918;52.092;5.232;2024-01-11T09:31:15;-4.10;99.90
17599;DHT22;8918;52.092;5.232;2024-01-11T09:33:41;-4.10;99.90
17599;DHT22;8918;52.092;5.232;2024-01-11T09:36:11;-3.90;99.90
17599;DHT22;8918;52.092;5.232;2024-01-11T09:38:37;-3.80;99.90
17599;DHT22;8918;52.092;5.232;2024-01-11T09:41:12;-3.70;99.90
17599;DHT22;8918;52.092;5.232;2024-01-11T09:43:38;-3.60;99.90
17599;DHT22;8918;52.092;5.232;2024-01-11T09:46:06;-3.50;99.90
17599;DHT22;8918;52.092;5.232;2024-01-11T09:48:36;-3.30;99.90
17599;DHT22;8918;52.092;5.232;2024-01-11T09:51:03;-3.10;99.90
17599;DHT22;8918;52.092;5.232;2024-01-11T09:53:32;-3.00;99.90
17599;DHT22;8918;52.092;5.232;2024-01-11T09:55:58;-2.80;99.90
17599;DHT22;8918;52.092;5.232;2024-01-11T09:58:25;-2.70;99.90
17599;DHT22;8918;52.092;5.232;2024-01-11T10:00:54;-2.60;99.90
17599;DHT22;8918;52.092;5.232;2024-01-11T10:03:24;-2.50;99.90
17599;DHT22;8918;52.092;5.232;2024-01-11T10:05:51;-2.50;99.90
17599;DHT22;8918;52.092;5.232;2024-01-11T10:08:22;-2.40;99.90
17599;DHT22;8918;52.092;5.232;2024-01-11T10:10:48;-2.40;99.90
17599;DHT22;8918;52.092;5.232;2024-01-11T10:13:14;-2.30;99.90
17599;DHT22;8918;52.092;5.232;2024-01-11T10:15:40;-2.30;99.90
17599;DHT22;8918;52.092;5.232;2024-01-11T10:18:05;-2.20;99.90
17599;DHT22;8918;52.092;5.232;2024-01-11T10:20:31;-2.10;99.90
17599;DHT22;8918;52.092;5.232;2024-01-11T10:22:58;-2.10;99.90
17599;DHT22;8918;52.092;5.232;2024-01-11T10:25:24;-2.00;99.90
17599;DHT22;8918;52.092;5.232;2024-01-11T10:27:50;-2.00;99.90
17599;DHT22;8918;52.092;5.232;2024-01-11T10:30:16;-2.00;99.90
17599;DHT22;8918;52.092;5.232;2024-01-11T10:32:46;-1.90;99.90
17599;DHT22;8918;52.092;5.232;2024-01-11T10:35:11;-1.90;99.90
17599;DHT22;8918;52.092;5.232;2024-01-11T10:37:37;-1.80;99.90
17599;DHT22;8918;52.092;5.232;2024-01-11T10:40:07;-1.80;99.90
17599;DHT22;8918;52.092;5.232;2024-01-11T10:42:51;-1.70;99.90
17599;DHT22;8918;52.092;5.232;2024-01-11T10:45:19;-1.60;99.90
17599;DHT22;8918;52.092;5.232;2024-01-11T10:47:54;-1.60;99.90
17599;DHT22;8918;52.092;5.232;2024-01-11T10:50:22;-1.60;99.90
17599;DHT22;8918;52.092;5.232;2024-01-11T10:55:44;-1.40;99.90
17599;DHT22;8918;52.092;5.232;2024-01-11T10:58:10;-1.40;99.90
17599;DHT22;8918;52.092;5.232;2024-01-11T11:00:37;-1.30;99.90
17599;DHT22;8918;52.092;5.232;2024-01-11T11:03:05;-1.30;99.90
17599;DHT22;8918;52.092;5.232;2024-01-11T11:05:34;-1.30;99.90
17599;DHT22;8918;52.092;5.232;2024-01-11T11:08:01;-1.20;99.90
17599;DHT22;8918;52.092;5.232;2024-01-11T11:10:30;-1.20;99.90
17599;DHT22;8918;52.092;5.232;2024-01-11T11:12:57;-1.20;99.90
17599;DHT22;8918;52.092;5.232;2024-01-11T11:15:27;-1.10;99.90
17599;DHT22;8918;52.092;5.232;2024-01-11T11:17:53;-1.10;99.90
17599;DHT22;8918;52.092;5.232;2024-01-11T11:20:19;-1.00;99.90
17599;DHT22;8918;52.092;5.232;2024-01-11T11:23:02;-1.00;99.90
17599;DHT22;8918;52.092;5.232;2024-01-11T11:25:29;-1.00;99.90
17599;DHT22;8918;52.092;5.232;2024-01-11T11:27:55;-0.90;99.90
17599;DHT22;8918;52.092;5.232;2024-01-11T11:30:21;-0.90;99.90
17599;DHT22;8918;52.092;5.232;2024-01-11T11:32:47;-0.90;99.90
17599;DHT22;8918;52.092;5.232;2024-01-11T11:35:13;-0.80;99.90
17599;DHT22;8918;52.092;5.232;2024-01-11T11:37:39;-0.80;99.90
17599;DHT22;8918;52.092;5.232;2024-01-11T11:40:13;-0.70;99.90
17599;DHT22;8918;52.092;5.232;2024-01-11T11:42:39;-0.70;99.90
17599;DHT22;8918;52.092;5.232;2024-01-11T11:45:07;-0.60;99.90
17599;DHT22;8918;52.092;5.232;2024-01-11T11:47:36;-0.60;99.90
17599;DHT22;8918;52.092;5.232;2024-01-11T11:50:10;-0.60;99.90
17599;DHT22;8918;52.092;5.232;2024-01-11T11:52:38;-0.50;99.90
17599;DHT22;8918;52.092;5.232;2024-01-11T11:55:07;-0.50;99.90
17599;DHT22;8918;52.092;5.232;2024-01-11T11:57:33;-0.40;99.90
17599;DHT22;8918;52.092;5.232;2024-01-11T11:59:59;-0.40;99.90
17599;DHT22;8918;52.092;5.232;2024-01-11T12:02:28;-0.40;99.90
17599;DHT22;8918;52.092;5.232;2024-01-11T12:04:54;-0.30;99.90
17599;DHT22;8918;52.092;5.232;2024-01-11T12:07:20;-0.30;99.90
17599;DHT22;8918;52.092;5.232;2024-01-11T12:09:48;-0.20;99.90
17599;DHT22;8918;52.092;5.232;2024-01-11T12:12:16;-0.10;99.90
17599;DHT22;8918;52.092;5.232;2024-01-11T12:14:43;-0.10;99.90
17599;DHT22;8918;52.092;5.232;2024-01-11T12:17:09;0.00;99.90
17599;DHT22;8918;52.092;5.232;2024-01-11T12:19:35;0.10;99.90
17599;DHT22;8918;52.092;5.232;2024-01-11T12:22:00;0.20;99.90
17599;DHT22;8918;52.092;5.232;2024-01-11T12:24:27;0.20;99.90
17599;DHT22;8918;52.092;5.232;2024-01-11T12:26:53;0.30;99.90
17599;DHT22;8918;52.092;5.232;2024-01-11T12:29:23;0.40;99.90
17599;DHT22;8918;52.092;5.232;2024-01-11T12:31:51;0.40;99.90
17599;DHT22;8918;52.092;5.232;2024-01-11T12:34:17;0.50;99.90
17599;DHT22;8918;52.092;5.232;2024-01-11T12:36:43;0.50;99.90
17599;DHT22;8918;52.092;5.232;2024-01-11T12:39:10;0.60;99.90
17599;DHT22;8918;52.092;5.232;2024-01-11T12:41:39;0.60;99.90
17599;DHT22;8918;52.092;5.232;2024-01-11T12:44:05;0.60;99.90
17599;DHT22;8918;52.092;5.232;2024-01-11T12:46:30;0.60;99.90
17599;DHT22;8918;52.092;5.232;2024-01-11T12:48:56;0.70;99.90
17599;DHT22;8918;52.092;5.232;2024-01-11T12:51:22;0.60;99.90
17599;DHT22;8918;52.092;5.232;2024-01-11T12:53:48;0.70;99.90
17599;DHT22;8918;52.092;5.232;2024-01-11T12:56:15;0.70;99.90
17599;DHT22;8918;52.092;5.232;2024-01-11T12:58:41;0.70;99.90
17599;DHT22;8918;52.092;5.232;2024-01-11T13:01:07;0.70;99.90
17599;DHT22;8918;52.092;5.232;2024-01-11T13:03:34;0.70;99.90
17599;DHT22;8918;52.092;5.232;2024-01-11T13:06:01;0.80;99.90
17599;DHT22;8918;52.092;5.232;2024-01-11T13:08:27;0.80;99.90
17599;DHT22;8918;52.092;5.232;2024-01-11T13:10:54;0.90;99.90
17599;DHT22;8918;52.092;5.232;2024-01-11T13:13:20;0.90;99.90
17599;DHT22;8918;52.092;5.232;2024-01-11T13:15:45;0.90;99.90
17599;DHT22;8918;52.092;5.232;2024-01-11T13:18:11;0.90;99.90
17599;DHT22;8918;52.092;5.232;2024-01-11T13:20:37;0.90;99.90
17599;DHT22;8918;52.092;5.232;2024-01-11T13:23:19;0.90;99.90
17599;DHT22;8918;52.092;5.232;2024-01-11T13:25:47;0.90;99.90
17599;DHT22;8918;52.092;5.232;2024-01-11T13:28:13;1.00;99.90
17599;DHT22;8918;52.092;5.232;2024-01-11T13:30:40;0.90;99.90
17599;DHT22;8918;52.092;5.232;2024-01-11T13:33:07;0.90;99.90
17599;DHT22;8918;52.092;5.232;2024-01-11T13:35:40;0.90;99.90
17599;DHT22;8918;52.092;5.232;2024-01-11T13:38:06;1.00;99.90
17599;DHT22;8918;52.092;5.232;2024-01-11T13:40:33;1.00;99.90
17599;DHT22;8918;52.092;5.232;2024-01-11T13:42:59;1.10;99.90
17599;DHT22;8918;52.092;5.232;2024-01-11T13:45:25;1.20;99.90
17599;DHT22;8918;52.092;5.232;2024-01-11T13:47:51;1.10;99.90
17599;DHT22;8918;52.092;5.232;2024-01-11T13:50:20;1.20;99.90
17599;DHT22;8918;52.092;5.232;2024-01-11T13:52:45;1.10;99.90
17599;DHT22;8918;52.092;5.232;2024-01-11T13:55:12;1.10;99.90
17599;DHT22;8918;52.092;5.232;2024-01-11T13:57:38;1.10;99.90
17599;DHT22;8918;52.092;5.232;2024-01-11T14:00:04;1.20;99.90
17599;DHT22;8918;52.092;5.232;2024-01-11T14:02:30;1.30;99.90
17599;DHT22;8918;52.092;5.232;2024-01-11T14:04:56;1.20;99.90
17599;DHT22;8918;52.092;5.232;2024-01-11T14:07:22;1.30;99.90
17599;DHT22;8918;52.092;5.232;2024-01-11T14:09:47;1.20;99.90
17599;DHT22;8918;52.092;5.232;2024-01-11T14:12:13;1.20;99.90
17599;DHT22;8918;52.092;5.232;2024-01-11T14:14:40;1.30;99.90
17599;DHT22;8918;52.092;5.232;2024-01-11T14:17:06;1.30;99.90
17599;DHT22;8918;52.092;5.232;2024-01-11T14:19:32;1.30;99.90
17599;DHT22;8918;52.092;5.232;2024-01-11T14:21:57;1.20;99.90
17599;DHT22;8918;52.092;5.232;2024-01-11T14:24:23;1.20;99.90
17599;DHT22;8918;52.092;5.232;2024-01-11T14:26:50;1.20;99.90
17599;DHT22;8918;52.092;5.232;2024-01-11T14:29:16;1.10;99.90
17599;DHT22;8918;52.092;5.232;2024-01-11T14:31:42;1.00;99.90
17599;DHT22;8918;52.092;5.232;2024-01-11T14:34:09;1.00;99.90
17599;DHT22;8918;52.092;5.232;2024-01-11T14:36:36;1.00;99.90
17599;DHT22;8918;52.092;5.232;2024-01-11T14:39:02;1.10;99.90
17599;DHT22;8918;52.092;5.232;2024-01-11T14:41:33;1.10;99.90
17599;DHT22;8918;52.092;5.232;2024-01-11T14:43:59;1.00;99.90
17599;DHT22;8918;52.092;5.232;2024-01-11T14:46:28;1.00;99.90
17599;DHT22;8918;52.092;5.232;2024-01-11T14:48:54;1.00;99.90
17599;DHT22;8918;52.092;5.232;2024-01-11T14:51:20;1.00;99.90
17599;DHT22;8918;52.092;5.232;2024-01-11T14:53:45;1.00;99.90
17599;DHT22;8918;52.092;5.232;2024-01-11T14:56:11;1.10;99.90
17599;DHT22;8918;52.092;5.232;2024-01-11T14:58:38;1.20;99.90
17599;DHT22;8918;52.092;5.232;2024-01-11T15:01:03;1.20;99.90
17599;DHT22;8918;52.092;5.232;2024-01-11T15:03:29;1.20;99.90
17599;DHT22;8918;52.092;5.232;2024-01-11T15:05:55;1.10;99.90
17599;DHT22;8918;52.092;5.232;2024-01-11T15:08:21;1.10;99.90
17599;DHT22;8918;52.092;5.232;2024-01-11T15:10:47;1.10;99.90
17599;DHT22;8918;52.092;5.232;2024-01-11T15:13:13;1.10;99.90
17599;DHT22;8918;52.092;5.232;2024-01-11T15:15:38;1.10;99.90
17599;DHT22;8918;52.092;5.232;2024-01-11T15:18:04;1.10;99.90
17599;DHT22;8918;52.092;5.232;2024-01-11T15:20:30;1.10;99.90
17599;DHT22;8918;52.092;5.232;2024-01-11T15:22:57;1.10;99.90
17599;DHT22;8918;52.092;5.232;2024-01-11T15:25:22;1.20;99.90
17599;DHT22;8918;52.092;5.232;2024-01-11T15:27:52;1.10;99.90
17599;DHT22;8918;52.092;5.232;2024-01-11T15:30:18;1.10;99.90
17599;DHT22;8918;52.092;5.232;2024-01-11T15:32:44;1.20;99.90
17599;DHT22;8918;52.092;5.232;2024-01-11T15:35:09;1.10;99.90
17599;DHT22;8918;52.092;5.232;2024-01-11T15:37:37;1.10;99.90
17599;DHT22;8918;52.092;5.232;2024-01-11T15:40:03;1.20;99.90
17599;DHT22;8918;52.092;5.232;2024-01-11T15:42:33;1.20;99.90
17599;DHT22;8918;52.092;5.232;2024-01-11T15:44:59;1.20;99.90
17599;DHT22;8918;52.092;5.232;2024-01-11T15:47:26;1.10;99.90